Grand Narrows, Canada
Current Conditions -  °F | °C
As of 4:00 AM on Sunday 26 Oct 2014 (Local Time) from CYPD Reporting Station
Overcast Overcast  
Wind Chill: 44°   Ceiling: 1000
Heat Index: 46°   Visibility: 9mi
Dew Point: 46°   Wind: 6mph
Humidity: 100%   Direction: 240°WSW
Pressure: 29.48"   Gusts: NA
Location:  45.95°N, 60.78°W
Report Text: CYPD 260700Z AUTO 24005KT 9SM BKN010 OVC039 08/08 A2948 RMK SLP986
Loading
Personal Weather Stations






























Interactive Weather Map New forecast layout! Learn more

10-Day Weather Forecast

Advertisements
Track Severe Weather on mobile